Terminal Aerodrome Forecast
Issued by NWS

Home | Current Version | Previous Version | Text Only | Print | Product List | Glossary On
Versions: 1 2 3 4 5 6 7 8 9 10 11 12 13 14
000
FTUS43 KGRB 171720
TAFMTW
TAF
KMTW 171720Z 1718/1818 18006KT P6SM SKC
     FM180200 21006KT 6SM BR SKC WS015/24035KT
     FM181000 26009KT 5SM BR FEW006 WS015/30035KT
     FM181600 27008KT P6SM SKC=

USA.gov is the U.S. government's official web portal to all federal, state and local government web resources and services.